Saga Sea — LNSK — position and weather

sailwx.info

Track history (hours):
 
Tides and Currents Weather Stations Pressure Air Temp Water Temp Dewpoint Dewpoint Depression Visibility Wind Speed Wind Dir Waves Ship Positions

Saga Sea

Last reported at 2017-Nov-20 00:30 UTC. Time now 2017-Nov-20 15:27 UTC.
Position N 28°09' W 015°25'.

Length 92 m; draft 8 m.

Type: Fishing. MMSI: 259539000.

Date/timePositionNaut miles runAvg speedWind from/ knotsBaromVisibWave heightAir tempDewpointWater temp
2017-Nov-20 00:30N 28°09' W 015°25'0 0.0
2017-Nov-20 00:00N 28°09' W 015°25'0 0.0
2017-Nov-19 23:30N 28°09' W 015°25'0 0.0
2017-Nov-19 23:00N 28°09' W 015°25'0 0.0
2017-Nov-19 22:30N 28°09' W 015°25'0 0.0
2017-Nov-19 22:00N 28°09' W 015°25'0 0.0
2017-Nov-19 21:30N 28°09' W 015°25'0 0.0
2017-Nov-19 21:00N 28°09' W 015°25'0 0.0
2017-Nov-19 20:30N 28°09' W 015°25'0 0.0
2017-Nov-19 19:51N 28°09' W 015°25'0 0.0
2017-Nov-19 19:21N 28°09' W 015°25'0 0.0
2017-Nov-19 18:54N 28°09' W 015°25'0 0.0
2017-Nov-19 18:24N 28°09' W 015°25'0 0.0
2017-Nov-19 17:54N 28°09' W 015°25'0 0.0
2017-Nov-19 17:24N 28°09' W 015°25'0 0.0
2017-Nov-19 16:54N 28°09' W 015°25'0 0.0
2017-Nov-19 16:24N 28°09' W 015°25'0 0.0
2017-Nov-19 15:57N 28°09' W 015°25'0 0.0
2017-Nov-19 15:27N 28°09' W 015°25'0 0.0
2017-Nov-19 14:57N 28°09' W 015°25'0 0.0
2017-Nov-19 14:27N 28°09' W 015°25'0 0.0
2017-Nov-19 13:42N 28°09' W 015°25'0 0.0
2017-Nov-19 13:27N 28°09' W 015°25'0 0.0
2017-Nov-19 13:00N 28°09' W 015°25'0 0.0
2017-Nov-19 12:30N 28°09' W 015°25'0 0.0
2017-Nov-19 12:00N 28°09' W 015°25'0 0.0
2017-Nov-19 11:30N 28°09' W 015°25'0 0.0
2017-Nov-19 11:00N 28°09' W 015°25'0 0.0
2017-Nov-19 10:30N 28°09' W 015°25'0 0.0
2017-Nov-19 10:00N 28°09' W 015°25'0 0.0
2017-Nov-19 09:30N 28°09' W 015°25'0 0.0
2017-Nov-19 08:48N 28°09' W 015°25'0 0.0
2017-Nov-19 08:30N 28°09' W 015°25'0 0.0
2017-Nov-19 08:00N 28°09' W 015°25'0 0.0
2017-Nov-19 07:30N 28°09' W 015°25'0 0.0
2017-Nov-19 07:00N 28°09' W 015°25'0 0.0
2017-Nov-19 06:21N 28°09' W 015°25'0 0.0
2017-Nov-19 05:51N 28°09' W 015°25'0 0.0
2017-Nov-19 05:24N 28°09' W 015°25'0 0.0
2017-Nov-19 04:54N 28°09' W 015°25'0 0.0
2017-Nov-19 04:24N 28°09' W 015°25'0 0.0
2017-Nov-19 03:54N 28°09' W 015°25'0 0.0
2017-Nov-19 03:24N 28°09' W 015°25'0 0.0
2017-Nov-19 02:54N 28°09' W 015°25'0 0.0
2017-Nov-19 02:24N 28°09' W 015°25'0 0.0
2017-Nov-19 01:57N 28°09' W 015°25'0 0.0
2017-Nov-19 01:27N 28°09' W 015°25'0 0.0
2017-Nov-19 00:57N 28°09' W 015°25'0 0.0
2017-Nov-19 00:24N 28°09' W 015°25'0 0.0
2017-Nov-19 00:00N 28°09' W 015°25'0 0.0
2017-Nov-18 23:30N 28°09' W 015°25'0 0.0
2017-Nov-18 23:00N 28°09' W 015°25'0 0.0
2017-Nov-18 22:30N 28°09' W 015°25'0 0.0
2017-Nov-18 22:00N 28°09' W 015°25'0 0.0
2017-Nov-18 21:30N 28°09' W 015°25'0 0.0
2017-Nov-18 21:00N 28°09' W 015°25'0 0.0
2017-Nov-18 20:30N 28°09' W 015°25'0 0.0
2017-Nov-18 20:00N 28°09' W 015°25'0 0.0
2017-Nov-18 19:30N 28°09' W 015°25'0 0.8
2017-Nov-18 19:00N 28°09' W 015°25'2 4.1
2017-Nov-18 18:30N 28°07' W 015°23'510.0
2017-Nov-18 18:00N 28°11' W 015°19'3 5.7
2017-Nov-18 17:30N 28°13' W 015°17'4 7.8
2017-Nov-18 17:00N 28°17' W 015°15'1 1.7
2017-Nov-18 16:30N 28°16' W 015°16'2 3.7
2017-Nov-18 16:00N 28°14' W 015°16'4 7.4
2017-Nov-18 15:30N 28°11' W 015°18'2 3.1
2017-Nov-18 15:00N 28°11' W 015°19'510.8
2017-Nov-18 14:30N 28°16' W 015°20'611.7
2017-Nov-18 14:00N 28°10' W 015°19'4 7.5
2017-Nov-18 13:30N 28°07' W 015°20'4 8.0
2017-Nov-18 13:00N 28°08' W 015°25'1 2.5
2017-Nov-18 12:28N 28°09' W 015°25'0 0.0
2017-Nov-18 11:58N 28°09' W 015°25'0 0.0
2017-Nov-18 11:16N 28°09' W 015°25'0 0.0
2017-Nov-18 10:49N 28°09' W 015°25'0 0.0
2017-Nov-18 10:19N 28°09' W 015°25'0 0.0
2017-Nov-18 09:49N 28°09' W 015°25'0 0.0
2017-Nov-18 09:22N 28°09' W 015°25'0 0.0
2017-Nov-18 08:52N 28°09' W 015°25'0 0.0
2017-Nov-18 08:22N 28°09' W 015°25'0 0.0
2017-Nov-18 07:52N 28°09' W 015°25'0 0.0
2017-Nov-18 07:22N 28°09' W 015°25'0 0.0
2017-Nov-18 06:55N 28°09' W 015°25'0 0.0
2017-Nov-18 06:25N 28°09' W 015°25'0 0.0
2017-Nov-18 05:55N 28°09' W 015°25'0 0.0
2017-Nov-18 05:25N 28°09' W 015°25'0 0.0
2017-Nov-18 04:55N 28°09' W 015°25'0 0.0
2017-Nov-18 04:25N 28°09' W 015°25'0 0.0
2017-Nov-18 03:58N 28°09' W 015°25'0 0.0
2017-Nov-18 03:28N 28°09' W 015°25'0 0.0
2017-Nov-18 02:58N 28°09' W 015°25'0 0.0
2017-Nov-18 02:28N 28°09' W 015°25'0 0.0
2017-Nov-18 01:58N 28°09' W 015°25'0 0.0
2017-Nov-18 01:28N 28°09' W 015°25'0 0.0
2017-Nov-18 00:58N 28°09' W 015°25'0 0.0
2017-Nov-18 00:28N 28°09' W 015°25'0 0.0
2017-Nov-17 23:58N 28°09' W 015°25'0 0.0
2017-Nov-17 23:28N 28°09' W 015°25'0 0.0
2017-Nov-17 22:58N 28°09' W 015°25'0 0.0
2017-Nov-17 22:28N 28°09' W 015°25'0 0.0
2017-Nov-17 21:58N 28°09' W 015°25'0 0.0
2017-Nov-17 21:19N 28°09' W 015°25'0 0.0
2017-Nov-17 20:49N 28°09' W 015°25'0 0.0
2017-Nov-17 20:19N 28°09' W 015°25'0 0.0
2017-Nov-17 19:52N 28°09' W 015°25'0 0.0
2017-Nov-17 19:22N 28°09' W 015°25'0 0.0
2017-Nov-17 18:52N 28°09' W 015°25'0 0.0
2017-Nov-17 18:22N 28°09' W 015°25'0 0.0
2017-Nov-17 17:52N 28°09' W 015°25'0 0.0
2017-Nov-17 17:22N 28°09' W 015°25'0 0.0
2017-Nov-17 16:55N 28°09' W 015°25'0 0.0
2017-Nov-17 16:25N 28°09' W 015°25'0 0.0
2017-Nov-17 15:55N 28°09' W 015°25'0 0.0
2017-Nov-17 15:25N 28°09' W 015°25'0 0.0
2017-Nov-17 14:55N 28°09' W 015°25'0 0.0
2017-Nov-17 14:25N 28°09' W 015°25'0 0.0
2017-Nov-17 13:55N 28°09' W 015°25'0 0.0
2017-Nov-17 13:28N 28°09' W 015°25'0 0.0
2017-Nov-17 12:58N 28°09' W 015°25'0 0.0
2017-Nov-17 12:28N 28°09' W 015°25'0 0.0
2017-Nov-17 11:58N 28°09' W 015°25'0 0.0
2017-Nov-17 11:28N 28°09' W 015°25'0 0.0
2017-Nov-17 10:58N 28°09' W 015°25'0 0.0
2017-Nov-17 10:28N 28°09' W 015°25'0 0.0
2017-Nov-17 09:58N 28°09' W 015°25'0 0.0
2017-Nov-17 09:28N 28°09' W 015°25'0 0.0
2017-Nov-17 08:58N 28°09' W 015°25'0 0.0
2017-Nov-17 08:28N 28°09' W 015°25'0 0.0
2017-Nov-17 07:58N 28°09' W 015°25'0 0.0
2017-Nov-17 07:19N 28°09' W 015°25'0 0.0
2017-Nov-17 06:49N 28°09' W 015°25'0 0.0
2017-Nov-17 06:19N 28°09' W 015°25'0 0.0
2017-Nov-17 05:52N 28°09' W 015°25'0 0.0
2017-Nov-17 05:22N 28°09' W 015°25'0 0.0
2017-Nov-17 04:52N 28°09' W 015°25'0 0.0
2017-Nov-17 04:22N 28°09' W 015°25'0 0.0
2017-Nov-17 03:52N 28°09' W 015°25'0 0.0
2017-Nov-17 03:22N 28°09' W 015°25'0 0.0
2017-Nov-17 02:52N 28°09' W 015°25'0 0.0
2017-Nov-17 02:25N 28°09' W 015°25'0 0.0
2017-Nov-17 01:55N 28°09' W 015°25'0 0.0
2017-Nov-17 01:25N 28°09' W 015°25'0 0.0
2017-Nov-17 00:55N 28°09' W 015°25'0 0.0
2017-Nov-17 00:25N 28°09' W 015°25'0 0.0
2017-Nov-16 23:58N 28°09' W 015°25'0 0.0
2017-Nov-16 23:28N 28°09' W 015°25'0 0.0
2017-Nov-16 22:58N 28°09' W 015°25'0 0.4
2017-Nov-16 22:28N 28°09' W 015°25'2 3.3
2017-Nov-16 22:00N 28°07' W 015°24'1 2.4
2017-Nov-16 21:30N 28°07' W 015°23'2 3.2
2017-Nov-16 21:00N 28°08' W 015°22'3 5.7
2017-Nov-16 20:30N 28°10' W 015°19'5 9.1
2017-Nov-16 20:00N 28°14' W 015°20'0 0.5
2017-Nov-16 19:30N 28°14' W 015°20'4 8.2
2017-Nov-16 19:00N 28°10' W 015°20'2 4.2
2017-Nov-16 18:30N 28°12' W 015°20'4 7.1
2017-Nov-16 18:00N 28°16' W 015°20'1 2.7
2017-Nov-16 17:30N 28°14' W 015°20'4 7.7
2017-Nov-16 17:00N 28°11' W 015°20'1 2.5
2017-Nov-16 16:30N 28°12' W 015°20'3 6.9
2017-Nov-16 16:00N 28°09' W 015°22'2 4.6
2017-Nov-16 15:30N 28°07' W 015°24'0 0.9
2017-Nov-16 14:58N 28°07' W 015°25'0 0.0
2017-Nov-16 14:28N 28°08' W 015°25'1 2.5
2017-Nov-16 14:00N 28°09' W 015°25'0 0.7
2017-Nov-16 13:25N 28°09' W 015°25'0 0.0
2017-Nov-16 12:55N 28°09' W 015°25'0 0.0
2017-Nov-16 12:25N 28°09' W 015°25'0 0.0
2017-Nov-16 11:58N 28°09' W 015°25'0 0.0
2017-Nov-16 11:28N 28°09' W 015°25'0 0.0
2017-Nov-16 10:58N 28°09' W 015°25'0 0.0
2017-Nov-16 10:28N 28°09' W 015°25'0 0.0
2017-Nov-16 09:58N 28°09' W 015°25'0 0.0
2017-Nov-16 09:28N 28°09' W 015°25'0 0.0
2017-Nov-16 08:58N 28°09' W 015°25'0 0.0
2017-Nov-16 08:28N 28°09' W 015°25'0 0.0
2017-Nov-16 07:58N 28°09' W 015°25'0 0.0
2017-Nov-16 07:28N 28°09' W 015°25'0 0.0
2017-Nov-16 06:58N 28°09' W 015°25'0 0.0
2017-Nov-16 06:28N 28°09' W 015°25'0 0.0
2017-Nov-16 05:58N 28°09' W 015°25'0 0.0
2017-Nov-16 05:19N 28°09' W 015°25'0 0.0
2017-Nov-16 04:49N 28°09' W 015°25'0 0.0
2017-Nov-16 04:19N 28°09' W 015°25'0 0.0
2017-Nov-16 03:52N 28°09' W 015°25'0 0.0
2017-Nov-16 03:22N 28°09' W 015°25'0 0.0
2017-Nov-16 02:52N 28°09' W 015°25'0 0.0
2017-Nov-16 02:07N 28°09' W 015°25'0 0.0
2017-Nov-16 01:52N 28°09' W 015°25'0 0.0
2017-Nov-16 01:22N 28°09' W 015°25'0 0.0
2017-Nov-16 00:55N 28°09' W 015°25'0 0.0
2017-Nov-16 00:25N 28°09' W 015°25'0 0.0
2017-Nov-15 23:55N 28°09' W 015°25'0 0.0
2017-Nov-15 23:25N 28°09' W 015°25'0 0.7
2017-Nov-15 23:00N 28°09' W 015°25'0 0.8
2017-Nov-15 22:24N 28°09' W 015°25'0 0.0
2017-Nov-15 21:54N 28°09' W 015°25'0 0.0
2017-Nov-15 21:24N 28°09' W 015°25'0 0.0
2017-Nov-15 20:54N 28°09' W 015°25'0 0.0
2017-Nov-15 20:24N 28°09' W 015°25'0 0.0
2017-Nov-15 19:57N 28°09' W 015°25'0 0.0
2017-Nov-15 19:27N 28°09' W 015°25'0 0.0
2017-Nov-15 18:57N 28°09' W 015°25'0 0.0
2017-Nov-15 18:27N 28°09' W 015°25'0 0.0
2017-Nov-15 17:54N 28°09' W 015°25'0 0.0
2017-Nov-15 17:27N 28°09' W 015°25'0 0.0
2017-Nov-15 17:00N 28°09' W 015°25'0 0.0
2017-Nov-15 16:30N 28°09' W 015°25'0 0.0
2017-Nov-15 16:00N 28°09' W 015°25'0 0.0
2017-Nov-15 15:30N 28°09' W 015°25'0 0.0
2017-Nov-15 15:00N 28°09' W 015°25'0 0.0
2017-Nov-15 14:30N 28°09' W 015°25'0 0.0
2017-Nov-15 14:00N 28°09' W 015°25'0 0.0
2017-Nov-15 13:30N 28°09' W 015°25'0 0.0
2017-Nov-15 13:00N 28°09' W 015°25'0 0.0
2017-Nov-15 12:30N 28°09' W 015°25'0 0.0
2017-Nov-15 12:00N 28°09' W 015°25'0 0.0
2017-Nov-15 11:30N 28°09' W 015°25'0 0.0
2017-Nov-15 11:00N 28°09' W 015°25'0 0.0
2017-Nov-15 10:30N 28°09' W 015°25'0 0.0
2017-Nov-15 09:51N 28°09' W 015°25'0 0.0
2017-Nov-15 09:03N 28°09' W 015°25'0 0.0
2017-Nov-15 08:48N 28°09' W 015°25'0 0.0
2017-Nov-15 08:21N 28°09' W 015°25'0 0.0
2017-Nov-15 07:54N 28°09' W 015°25'0 0.0
2017-Nov-15 07:24N 28°09' W 015°25'0 0.0
2017-Nov-15 06:54N 28°09' W 015°25'0 0.4
2017-Nov-15 06:30N 28°08' W 015°25'1 1.3
2017-Nov-15 06:00N 28°08' W 015°25'1 2.1
2017-Nov-15 05:27N 28°09' W 015°25'0 0.0
2017-Nov-15 04:57N 28°09' W 015°25'0 0.0
2017-Nov-15 04:27N 28°09' W 015°25'0 0.0
2017-Nov-15 03:57N 28°09' W 015°25'0 0.0
2017-Nov-15 03:27N 28°09' W 015°25'0 0.0
2017-Nov-15 02:57N 28°09' W 015°25'0 0.0
2017-Nov-15 02:27N 28°09' W 015°25'0 0.0
2017-Nov-15 02:00N 28°09' W 015°25'0 0.0
2017-Nov-15 01:30N 28°09' W 015°25'0 0.0
2017-Nov-15 01:00N 28°09' W 015°25'0 0.0
2017-Nov-15 00:30N 28°09' W 015°25'0 0.0
2017-Nov-15 00:00N 28°09' W 015°25'0 0.0
2017-Nov-14 23:30N 28°09' W 015°25'0 0.0
2017-Nov-14 23:00N 28°09' W 015°25'0 0.0
2017-Nov-14 22:18N 28°09' W 015°25'0 0.0
2017-Nov-14 22:00N 28°09' W 015°25'0 0.0
2017-Nov-14 21:30N 28°09' W 015°25'0 0.0
2017-Nov-14 21:00N 28°09' W 015°25'0 0.0
2017-Nov-14 20:30N 28°09' W 015°25'0 0.0
2017-Nov-14 19:51N 28°09' W 015°25'0 0.0
2017-Nov-14 19:21N 28°09' W 015°25'0 0.0
2017-Nov-14 18:51N 28°09' W 015°25'0 0.0
2017-Nov-14 18:24N 28°09' W 015°25'0 0.0
2017-Nov-14 17:54N 28°09' W 015°25'0 0.0
2017-Nov-14 17:21N 28°09' W 015°25'0 0.0
2017-Nov-14 16:54N 28°09' W 015°25'0 0.0
2017-Nov-14 16:24N 28°09' W 015°25'0 0.0
2017-Nov-14 15:54N 28°09' W 015°25'0 0.0
2017-Nov-14 15:24N 28°09' W 015°25'0 0.0
2017-Nov-14 14:57N 28°09' W 015°25'0 0.0
2017-Nov-14 14:27N 28°09' W 015°25'0 0.0
2017-Nov-14 13:57N 28°09' W 015°25'0 0.0
2017-Nov-14 13:27N 28°09' W 015°25'0 0.0
2017-Nov-14 12:57N 28°09' W 015°25'0 0.0
2017-Nov-14 12:27N 28°09' W 015°25'0 0.0
2017-Nov-14 12:00N 28°09' W 015°25'0 0.0
2017-Nov-14 11:30N 28°09' W 015°25'0 0.0
2017-Nov-14 11:00N 28°09' W 015°25'0 0.0
2017-Nov-14 10:30N 28°09' W 015°25'0 0.0
2017-Nov-14 10:00N 28°09' W 015°25'0 0.0
2017-Nov-14 09:30N 28°09' W 015°25'0 0.0
2017-Nov-14 09:00N 28°09' W 015°25'0 0.0
2017-Nov-14 08:27N 28°09' W 015°25'0 0.0
2017-Nov-14 08:00N 28°09' W 015°25'0 0.0
2017-Nov-14 07:30N 28°09' W 015°25'0 0.0
2017-Nov-14 07:00N 28°09' W 015°25'0 0.0
2017-Nov-14 06:30N 28°09' W 015°25'0 0.0
2017-Nov-14 06:00N 28°09' W 015°25'0 0.0
2017-Nov-14 05:21N 28°09' W 015°25'0 0.0
2017-Nov-14 04:51N 28°09' W 015°25'0 0.0
2017-Nov-14 04:21N 28°09' W 015°25'0 0.0
2017-Nov-14 03:54N 28°09' W 015°25'0 0.0
2017-Nov-14 03:24N 28°09' W 015°25'0 0.0
2017-Nov-14 02:54N 28°09' W 015°25'0 0.0
2017-Nov-14 02:24N 28°09' W 015°25'0 0.0
2017-Nov-14 01:57N 28°09' W 015°25'0 0.0
2017-Nov-14 01:27N 28°09' W 015°25'0 0.0
2017-Nov-14 00:57N 28°09' W 015°25'0 0.0
2017-Nov-14 00:27N 28°09' W 015°25'0 0.0
2017-Nov-13 23:57N 28°09' W 015°25'0 0.0
2017-Nov-13 23:27N 28°09' W 015°25'0 0.0
2017-Nov-13 22:57N 28°09' W 015°25'0 0.0
2017-Nov-13 22:30N 28°09' W 015°25'0 0.0
2017-Nov-13 22:00N 28°09' W 015°25'0 0.0
2017-Nov-13 02:00N 28°09' W 015°25'0 0.0
2017-Nov-13 01:21N 28°09' W 015°25'0 0.0
2017-Nov-13 00:51N 28°09' W 015°25'0 0.0
2017-Nov-13 00:21N 28°09' W 015°25'0 0.0
2017-Nov-12 23:54N 28°09' W 015°25'0 0.0
2017-Nov-12 23:24N 28°09' W 015°25'0 0.0
2017-Nov-12 22:54N 28°09' W 015°25'0 0.0
2017-Nov-12 22:21N 28°09' W 015°25'0 0.0
2017-Nov-12 21:54N 28°09' W 015°25'0 0.0
2017-Nov-12 21:27N 28°09' W 015°25'0 0.0
2017-Nov-12 20:57N 28°09' W 015°25'0 0.0
2017-Nov-12 20:27N 28°09' W 015°25'0 0.0
2017-Nov-12 19:57N 28°09' W 015°25'0 0.0
2017-Nov-12 19:27N 28°09' W 015°25'0 0.0
2017-Nov-12 18:54N 28°09' W 015°25'0 0.0
2017-Nov-12 18:30N 28°09' W 015°25'0 0.0
2017-Nov-12 18:00N 28°09' W 015°25'0 0.0
2017-Nov-12 17:30N 28°09' W 015°25'0 0.0
2017-Nov-12 16:57N 28°09' W 015°25'0 0.0
2017-Nov-12 16:30N 28°09' W 015°25'0 0.0
2017-Nov-12 16:00N 28°09' W 015°25'0 0.0
2017-Nov-12 15:30N 28°09' W 015°25'0 0.0
2017-Nov-12 14:48N 28°09' W 015°25'0 0.0
2017-Nov-12 14:30N 28°09' W 015°25'0 0.0
2017-Nov-12 14:00N 28°09' W 015°25'0 0.0
2017-Nov-12 13:30N 28°09' W 015°25'0 0.0
2017-Nov-12 13:00N 28°09' W 015°25'0 0.0
2017-Nov-12 12:30N 28°09' W 015°25'0 0.0
2017-Nov-12 12:00N 28°09' W 015°25'0 0.0
2017-Nov-12 11:21N 28°09' W 015°25'0 0.0
2017-Nov-12 10:54N 28°09' W 015°25'0 0.0
2017-Nov-12 10:21N 28°09' W 015°25'0 0.0
2017-Nov-12 09:54N 28°09' W 015°25'0 0.0
2017-Nov-12 09:24N 28°09' W 015°25'0 0.0
2017-Nov-12 08:54N 28°09' W 015°25'0 0.0
2017-Nov-12 08:24N 28°09' W 015°25'0 0.0
2017-Nov-12 07:54N 28°09' W 015°25'0 0.0
2017-Nov-12 07:27N 28°09' W 015°25'0 0.0
2017-Nov-12 06:57N 28°09' W 015°25'0 0.0
2017-Nov-12 06:27N 28°09' W 015°25'0 0.0
2017-Nov-12 05:57N 28°09' W 015°25'0 0.0
2017-Nov-12 05:24N 28°09' W 015°25'0 0.0
2017-Nov-12 05:00N 28°09' W 015°25'0 0.0
2017-Nov-12 04:30N 28°09' W 015°25'0 0.0
2017-Nov-12 04:00N 28°09' W 015°25'0 0.0
2017-Nov-12 03:30N 28°09' W 015°25'0 0.0
2017-Nov-12 03:00N 28°09' W 015°25'0 0.0
2017-Nov-12 02:30N 28°09' W 015°25'0 0.0
2017-Nov-12 01:57N 28°09' W 015°25'0 0.0
2017-Nov-12 01:30N 28°09' W 015°25'0 0.0
2017-Nov-12 00:57N 28°09' W 015°25'0 0.0
2017-Nov-12 00:18N 28°09' W 015°25'0 0.0
2017-Nov-12 00:00N 28°09' W 015°25'0 0.0
2017-Nov-11 23:30N 28°09' W 015°25'0 0.0
2017-Nov-11 23:00N 28°09' W 015°25'0 0.0
2017-Nov-11 22:21N 28°09' W 015°25'0 0.0
2017-Nov-11 21:51N 28°09' W 015°25'0 0.0
2017-Nov-11 21:21N 28°09' W 015°25'0 0.0
2017-Nov-11 20:51N 28°09' W 015°25'0 0.0
2017-Nov-11 20:24N 28°09' W 015°25'0 0.0
2017-Nov-11 19:54N 28°09' W 015°25'0 0.0
2017-Nov-11 19:21N 28°09' W 015°25'0 0.0
2017-Nov-11 18:54N 28°09' W 015°25'0 0.0
2017-Nov-11 18:24N 28°09' W 015°25'0 0.0
2017-Nov-11 17:54N 28°09' W 015°25'0 0.0
2017-Nov-11 17:27N 28°09' W 015°25'0 0.0
2017-Nov-11 16:57N 28°09' W 015°25'0 0.0
2017-Nov-11 16:24N 28°09' W 015°25'0 0.0
2017-Nov-11 15:57N 28°09' W 015°25'0 0.0
2017-Nov-11 15:27N 28°09' W 015°25'0 0.0
2017-Nov-11 14:57N 28°09' W 015°25'0 0.0
2017-Nov-11 14:30N 28°09' W 015°25'0 0.0
2017-Nov-11 14:00N 28°09' W 015°25'0 0.0
2017-Nov-11 13:30N 28°09' W 015°25'0 0.0
2017-Nov-11 12:45N 28°09' W 015°25'0 0.0
2017-Nov-11 12:30N 28°09' W 015°25'0 0.0
2017-Nov-11 12:00N 28°09' W 015°25'0 0.0
2017-Nov-11 11:27N 28°09' W 015°25'0 0.0
2017-Nov-11 11:00N 28°09' W 015°25'0 0.0
2017-Nov-11 10:30N 28°09' W 015°25'0 0.0
2017-Nov-11 10:00N 28°09' W 015°25'0 0.0
2017-Nov-11 09:30N 28°09' W 015°25'0 0.0
2017-Nov-11 09:00N 28°09' W 015°25'0 0.0
2017-Nov-11 08:30N 28°09' W 015°25'0 0.0
2017-Nov-11 07:55N 28°09' W 015°25'0 0.0
2017-Nov-11 07:25N 28°09' W 015°25'0 0.0
2017-Nov-11 06:55N 28°09' W 015°25'0 0.0
2017-Nov-11 06:25N 28°09' W 015°25'0 0.0
2017-Nov-11 05:58N 28°09' W 015°25'0 0.0
2017-Nov-11 05:28N 28°09' W 015°25'0 0.0
2017-Nov-11 04:58N 28°09' W 015°25'0 0.0
2017-Nov-11 04:28N 28°09' W 015°25'0 0.0
2017-Nov-11 03:58N 28°09' W 015°25'0 0.0
2017-Nov-11 03:28N 28°09' W 015°25'0 0.0
2017-Nov-11 02:58N 28°09' W 015°25'0 0.0
2017-Nov-11 02:28N 28°09' W 015°25'0 0.0
2017-Nov-11 01:46N 28°09' W 015°25'0 0.0
2017-Nov-11 01:28N 28°09' W 015°25'0 0.0
2017-Nov-11 00:58N 28°09' W 015°25'0 0.0
2017-Nov-11 00:28N 28°09' W 015°25'0 0.0
2017-Nov-10 23:58N 28°09' W 015°25'0 0.0
2017-Nov-10 23:28N 28°09' W 015°25'0 0.0
2017-Nov-10 22:49N 28°09' W 015°25'0 0.0
2017-Nov-10 22:19N 28°09' W 015°25'0 0.0
2017-Nov-10 21:52N 28°09' W 015°25'0 0.0
2017-Nov-10 21:22N 28°09' W 015°25'0 0.0
2017-Nov-10 20:52N 28°09' W 015°25'0 0.0
2017-Nov-10 20:22N 28°09' W 015°25'0 0.0
2017-Nov-10 19:52N 28°09' W 015°25'0 0.0
2017-Nov-10 19:22N 28°09' W 015°25'0 0.0
2017-Nov-10 18:52N 28°09' W 015°25'0 0.0
2017-Nov-10 18:25N 28°09' W 015°25'0 0.0
2017-Nov-10 17:55N 28°09' W 015°25'0 0.0
2017-Nov-10 17:25N 28°09' W 015°25'0 0.0
2017-Nov-10 16:55N 28°09' W 015°25'0 0.0
2017-Nov-10 16:25N 28°09' W 015°25'0 0.0
2017-Nov-10 15:55N 28°09' W 015°25'0 0.0
2017-Nov-10 15:25N 28°09' W 015°25'0 0.0
2017-Nov-10 14:58N 28°09' W 015°25'0 0.0
2017-Nov-10 14:28N 28°09' W 015°25'0 0.0
2017-Nov-10 13:55N 28°09' W 015°25'0 0.0
2017-Nov-10 13:13N 28°09' W 015°25'0 0.0
2017-Nov-10 12:58N 28°09' W 015°25'0 0.0
2017-Nov-10 12:28N 28°09' W 015°25'0 0.0
2017-Nov-10 11:58N 28°09' W 015°25'0 0.0
2017-Nov-10 11:28N 28°09' W 015°25'0 0.0
2017-Nov-10 10:58N 28°09' W 015°25'0 0.0
2017-Nov-10 10:16N 28°09' W 015°25'0 0.0
2017-Nov-10 09:58N 28°09' W 015°25'0 0.0
2017-Nov-10 09:28N 28°09' W 015°25'0 0.0
2017-Nov-10 08:58N 28°09' W 015°25'0 0.0
2017-Nov-10 08:04N 28°09' W 015°25'0 0.0
2017-Nov-10 07:49N 28°09' W 015°25'0 0.0
2017-Nov-10 07:19N 28°09' W 015°25'0 0.0
2017-Nov-10 06:52N 28°09' W 015°25'0 0.0
2017-Nov-10 06:22N 28°09' W 015°25'0 0.0
2017-Nov-10 05:52N 28°09' W 015°25'0 0.0
2017-Nov-10 05:22N 28°09' W 015°25'0 0.0
2017-Nov-10 04:49N 28°09' W 015°25'0 0.0
2017-Nov-10 04:22N 28°09' W 015°25'0 0.0
2017-Nov-10 03:55N 28°09' W 015°25'0 0.0
2017-Nov-10 03:25N 28°09' W 015°25'0 0.0
2017-Nov-10 02:55N 28°09' W 015°25'0 0.0
2017-Nov-10 02:22N 28°09' W 015°25'0 0.0
2017-Nov-10 01:58N 28°09' W 015°25'0 0.0
2017-Nov-10 01:28N 28°09' W 015°25'0 0.0
2017-Nov-10 00:58N 28°09' W 015°25'  
Track history (hours):
 
Tides and Currents Weather Stations Pressure Air Temp Water Temp Dewpoint Dewpoint Depression Visibility Wind Speed Wind Dir Waves Ship Positions

Saga Sea

Last reported at 2017-Nov-20 00:30 UTC. Time now 2017-Nov-20 15:27 UTC.
Position N 28°09' W 015°25'.

Length 92 m; draft 8 m.

Type: Fishing. MMSI: 259539000.

Date/timePositionNaut miles runAvg speedWind from/ knotsBaromVisibWave heightAir tempDewpointWater temp
2017-Nov-20 00:30N 28°09' W 015°25'0 0.0
2017-Nov-20 00:00N 28°09' W 015°25'0 0.0
2017-Nov-19 23:30N 28°09' W 015°25'0 0.0
2017-Nov-19 23:00N 28°09' W 015°25'0 0.0
2017-Nov-19 22:30N 28°09' W 015°25'0 0.0
2017-Nov-19 22:00N 28°09' W 015°25'0 0.0
2017-Nov-19 21:30N 28°09' W 015°25'0 0.0
2017-Nov-19 21:00N 28°09' W 015°25'0 0.0
2017-Nov-19 20:30N 28°09' W 015°25'0 0.0
2017-Nov-19 19:51N 28°09' W 015°25'0 0.0
2017-Nov-19 19:21N 28°09' W 015°25'0 0.0
2017-Nov-19 18:54N 28°09' W 015°25'0 0.0
2017-Nov-19 18:24N 28°09' W 015°25'0 0.0
2017-Nov-19 17:54N 28°09' W 015°25'0 0.0
2017-Nov-19 17:24N 28°09' W 015°25'0 0.0
2017-Nov-19 16:54N 28°09' W 015°25'0 0.0
2017-Nov-19 16:24N 28°09' W 015°25'0 0.0
2017-Nov-19 15:57N 28°09' W 015°25'0 0.0
2017-Nov-19 15:27N 28°09' W 015°25'0 0.0
2017-Nov-19 14:57N 28°09' W 015°25'0 0.0
2017-Nov-19 14:27N 28°09' W 015°25'0 0.0
2017-Nov-19 13:42N 28°09' W 015°25'0 0.0
2017-Nov-19 13:27N 28°09' W 015°25'0 0.0
2017-Nov-19 13:00N 28°09' W 015°25'0 0.0
2017-Nov-19 12:30N 28°09' W 015°25'0 0.0
2017-Nov-19 12:00N 28°09' W 015°25'0 0.0
2017-Nov-19 11:30N 28°09' W 015°25'0 0.0
2017-Nov-19 11:00N 28°09' W 015°25'0 0.0
2017-Nov-19 10:30N 28°09' W 015°25'0 0.0
2017-Nov-19 10:00N 28°09' W 015°25'0 0.0
2017-Nov-19 09:30N 28°09' W 015°25'0 0.0
2017-Nov-19 08:48N 28°09' W 015°25'0 0.0
2017-Nov-19 08:30N 28°09' W 015°25'0 0.0
2017-Nov-19 08:00N 28°09' W 015°25'0 0.0
2017-Nov-19 07:30N 28°09' W 015°25'0 0.0
2017-Nov-19 07:00N 28°09' W 015°25'0 0.0
2017-Nov-19 06:21N 28°09' W 015°25'0 0.0
2017-Nov-19 05:51N 28°09' W 015°25'0 0.0
2017-Nov-19 05:24N 28°09' W 015°25'0 0.0
2017-Nov-19 04:54N 28°09' W 015°25'0 0.0
2017-Nov-19 04:24N 28°09' W 015°25'0 0.0
2017-Nov-19 03:54N 28°09' W 015°25'0 0.0
2017-Nov-19 03:24N 28°09' W 015°25'0 0.0
2017-Nov-19 02:54N 28°09' W 015°25'0 0.0
2017-Nov-19 02:24N 28°09' W 015°25'0 0.0
2017-Nov-19 01:57N 28°09' W 015°25'0 0.0
2017-Nov-19 01:27N 28°09' W 015°25'0 0.0
2017-Nov-19 00:57N 28°09' W 015°25'0 0.0
2017-Nov-19 00:24N 28°09' W 015°25'0 0.0
2017-Nov-19 00:00N 28°09' W 015°25'0 0.0
2017-Nov-18 23:30N 28°09' W 015°25'0 0.0
2017-Nov-18 23:00N 28°09' W 015°25'0 0.0
2017-Nov-18 22:30N 28°09' W 015°25'0 0.0
2017-Nov-18 22:00N 28°09' W 015°25'0 0.0
2017-Nov-18 21:30N 28°09' W 015°25'0 0.0
2017-Nov-18 21:00N 28°09' W 015°25'0 0.0
2017-Nov-18 20:30N 28°09' W 015°25'0 0.0
2017-Nov-18 20:00N 28°09' W 015°25'0 0.0
2017-Nov-18 19:30N 28°09' W 015°25'0 0.8
2017-Nov-18 19:00N 28°09' W 015°25'2 4.1
2017-Nov-18 18:30N 28°07' W 015°23'510.0
2017-Nov-18 18:00N 28°11' W 015°19'3 5.7
2017-Nov-18 17:30N 28°13' W 015°17'4 7.8
2017-Nov-18 17:00N 28°17' W 015°15'1 1.7
2017-Nov-18 16:30N 28°16' W 015°16'2 3.7
2017-Nov-18 16:00N 28°14' W 015°16'4 7.4
2017-Nov-18 15:30N 28°11' W 015°18'2 3.1
2017-Nov-18 15:00N 28°11' W 015°19'510.8
2017-Nov-18 14:30N 28°16' W 015°20'611.7
2017-Nov-18 14:00N 28°10' W 015°19'4 7.5
2017-Nov-18 13:30N 28°07' W 015°20'4 8.0
2017-Nov-18 13:00N 28°08' W 015°25'1 2.5
2017-Nov-18 12:28N 28°09' W 015°25'0 0.0
2017-Nov-18 11:58N 28°09' W 015°25'0 0.0
2017-Nov-18 11:16N 28°09' W 015°25'0 0.0
2017-Nov-18 10:49N 28°09' W 015°25'0 0.0
2017-Nov-18 10:19N 28°09' W 015°25'0 0.0
2017-Nov-18 09:49N 28°09' W 015°25'0 0.0
2017-Nov-18 09:22N 28°09' W 015°25'0 0.0
2017-Nov-18 08:52N 28°09' W 015°25'0 0.0
2017-Nov-18 08:22N 28°09' W 015°25'0 0.0
2017-Nov-18 07:52N 28°09' W 015°25'0 0.0
2017-Nov-18 07:22N 28°09' W 015°25'0 0.0
2017-Nov-18 06:55N 28°09' W 015°25'0 0.0
2017-Nov-18 06:25N 28°09' W 015°25'0 0.0
2017-Nov-18 05:55N 28°09' W 015°25'0 0.0
2017-Nov-18 05:25N 28°09' W 015°25'0 0.0
2017-Nov-18 04:55N 28°09' W 015°25'0 0.0
2017-Nov-18 04:25N 28°09' W 015°25'0 0.0
2017-Nov-18 03:58N 28°09' W 015°25'0 0.0
2017-Nov-18 03:28N 28°09' W 015°25'0 0.0
2017-Nov-18 02:58N 28°09' W 015°25'0 0.0
2017-Nov-18 02:28N 28°09' W 015°25'0 0.0
2017-Nov-18 01:58N 28°09' W 015°25'0 0.0
2017-Nov-18 01:28N 28°09' W 015°25'0 0.0
2017-Nov-18 00:58N 28°09' W 015°25'0 0.0
2017-Nov-18 00:28N 28°09' W 015°25'0 0.0
2017-Nov-17 23:58N 28°09' W 015°25'0 0.0
2017-Nov-17 23:28N 28°09' W 015°25'0 0.0
2017-Nov-17 22:58N 28°09' W 015°25'0 0.0
2017-Nov-17 22:28N 28°09' W 015°25'0 0.0
2017-Nov-17 21:58N 28°09' W 015°25'0 0.0
2017-Nov-17 21:19N 28°09' W 015°25'0 0.0
2017-Nov-17 20:49N 28°09' W 015°25'0 0.0
2017-Nov-17 20:19N 28°09' W 015°25'0 0.0
2017-Nov-17 19:52N 28°09' W 015°25'0 0.0
2017-Nov-17 19:22N 28°09' W 015°25'0 0.0
2017-Nov-17 18:52N 28°09' W 015°25'0 0.0
2017-Nov-17 18:22N 28°09' W 015°25'0 0.0
2017-Nov-17 17:52N 28°09' W 015°25'0 0.0
2017-Nov-17 17:22N 28°09' W 015°25'0 0.0
2017-Nov-17 16:55N 28°09' W 015°25'0 0.0
2017-Nov-17 16:25N 28°09' W 015°25'0 0.0
2017-Nov-17 15:55N 28°09' W 015°25'0 0.0
2017-Nov-17 15:25N 28°09' W 015°25'0 0.0
2017-Nov-17 14:55N 28°09' W 015°25'0 0.0
2017-Nov-17 14:25N 28°09' W 015°25'0 0.0
2017-Nov-17 13:55N 28°09' W 015°25'0 0.0
2017-Nov-17 13:28N 28°09' W 015°25'0 0.0
2017-Nov-17 12:58N 28°09' W 015°25'0 0.0
2017-Nov-17 12:28N 28°09' W 015°25'0 0.0
2017-Nov-17 11:58N 28°09' W 015°25'0 0.0
2017-Nov-17 11:28N 28°09' W 015°25'0 0.0
2017-Nov-17 10:58N 28°09' W 015°25'0 0.0
2017-Nov-17 10:28N 28°09' W 015°25'0 0.0
2017-Nov-17 09:58N 28°09' W 015°25'0 0.0
2017-Nov-17 09:28N 28°09' W 015°25'0 0.0
2017-Nov-17 08:58N 28°09' W 015°25'0 0.0
2017-Nov-17 08:28N 28°09' W 015°25'0 0.0
2017-Nov-17 07:58N 28°09' W 015°25'0 0.0
2017-Nov-17 07:19N 28°09' W 015°25'0 0.0
2017-Nov-17 06:49N 28°09' W 015°25'0 0.0
2017-Nov-17 06:19N 28°09' W 015°25'0 0.0
2017-Nov-17 05:52N 28°09' W 015°25'0 0.0
2017-Nov-17 05:22N 28°09' W 015°25'0 0.0
2017-Nov-17 04:52N 28°09' W 015°25'0 0.0
2017-Nov-17 04:22N 28°09' W 015°25'0 0.0
2017-Nov-17 03:52N 28°09' W 015°25'0 0.0
2017-Nov-17 03:22N 28°09' W 015°25'0 0.0
2017-Nov-17 02:52N 28°09' W 015°25'0 0.0
2017-Nov-17 02:25N 28°09' W 015°25'0 0.0
2017-Nov-17 01:55N 28°09' W 015°25'0 0.0
2017-Nov-17 01:25N 28°09' W 015°25'0 0.0
2017-Nov-17 00:55N 28°09' W 015°25'0 0.0
2017-Nov-17 00:25N 28°09' W 015°25'0 0.0
2017-Nov-16 23:58N 28°09' W 015°25'0 0.0
2017-Nov-16 23:28N 28°09' W 015°25'0 0.0
2017-Nov-16 22:58N 28°09' W 015°25'0 0.4
2017-Nov-16 22:28N 28°09' W 015°25'2 3.3
2017-Nov-16 22:00N 28°07' W 015°24'1 2.4
2017-Nov-16 21:30N 28°07' W 015°23'2 3.2
2017-Nov-16 21:00N 28°08' W 015°22'3 5.7
2017-Nov-16 20:30N 28°10' W 015°19'5 9.1
2017-Nov-16 20:00N 28°14' W 015°20'0 0.5
2017-Nov-16 19:30N 28°14' W 015°20'4 8.2
2017-Nov-16 19:00N 28°10' W 015°20'2 4.2
2017-Nov-16 18:30N 28°12' W 015°20'4 7.1
2017-Nov-16 18:00N 28°16' W 015°20'1 2.7
2017-Nov-16 17:30N 28°14' W 015°20'4 7.7
2017-Nov-16 17:00N 28°11' W 015°20'1 2.5
2017-Nov-16 16:30N 28°12' W 015°20'3 6.9
2017-Nov-16 16:00N 28°09' W 015°22'2 4.6
2017-Nov-16 15:30N 28°07' W 015°24'0 0.9
2017-Nov-16 14:58N 28°07' W 015°25'0 0.0
2017-Nov-16 14:28N 28°08' W 015°25'1 2.5
2017-Nov-16 14:00N 28°09' W 015°25'0 0.7
2017-Nov-16 13:25N 28°09' W 015°25'0 0.0
2017-Nov-16 12:55N 28°09' W 015°25'0 0.0
2017-Nov-16 12:25N 28°09' W 015°25'0 0.0
2017-Nov-16 11:58N 28°09' W 015°25'0 0.0
2017-Nov-16 11:28N 28°09' W 015°25'0 0.0
2017-Nov-16 10:58N 28°09' W 015°25'0 0.0
2017-Nov-16 10:28N 28°09' W 015°25'0 0.0
2017-Nov-16 09:58N 28°09' W 015°25'0 0.0
2017-Nov-16 09:28N 28°09' W 015°25'0 0.0
2017-Nov-16 08:58N 28°09' W 015°25'0 0.0
2017-Nov-16 08:28N 28°09' W 015°25'0 0.0
2017-Nov-16 07:58N 28°09' W 015°25'0 0.0
2017-Nov-16 07:28N 28°09' W 015°25'0 0.0
2017-Nov-16 06:58N 28°09' W 015°25'0 0.0
2017-Nov-16 06:28N 28°09' W 015°25'0 0.0
2017-Nov-16 05:58N 28°09' W 015°25'0 0.0
2017-Nov-16 05:19N 28°09' W 015°25'0 0.0
2017-Nov-16 04:49N 28°09' W 015°25'0 0.0
2017-Nov-16 04:19N 28°09' W 015°25'0 0.0
2017-Nov-16 03:52N 28°09' W 015°25'0 0.0
2017-Nov-16 03:22N 28°09' W 015°25'0 0.0
2017-Nov-16 02:52N 28°09' W 015°25'0 0.0
2017-Nov-16 02:07N 28°09' W 015°25'0 0.0
2017-Nov-16 01:52N 28°09' W 015°25'0 0.0
2017-Nov-16 01:22N 28°09' W 015°25'0 0.0
2017-Nov-16 00:55N 28°09' W 015°25'0 0.0
2017-Nov-16 00:25N 28°09' W 015°25'0 0.0
2017-Nov-15 23:55N 28°09' W 015°25'0 0.0
2017-Nov-15 23:25N 28°09' W 015°25'0 0.7
2017-Nov-15 23:00N 28°09' W 015°25'0 0.8
2017-Nov-15 22:24N 28°09' W 015°25'0 0.0
2017-Nov-15 21:54N 28°09' W 015°25'0 0.0
2017-Nov-15 21:24N 28°09' W 015°25'0 0.0
2017-Nov-15 20:54N 28°09' W 015°25'0 0.0
2017-Nov-15 20:24N 28°09' W 015°25'0 0.0
2017-Nov-15 19:57N 28°09' W 015°25'0 0.0
2017-Nov-15 19:27N 28°09' W 015°25'0 0.0
2017-Nov-15 18:57N 28°09' W 015°25'0 0.0
2017-Nov-15 18:27N 28°09' W 015°25'0 0.0
2017-Nov-15 17:54N 28°09' W 015°25'0 0.0
2017-Nov-15 17:27N 28°09' W 015°25'0 0.0
2017-Nov-15 17:00N 28°09' W 015°25'0 0.0
2017-Nov-15 16:30N 28°09' W 015°25'0 0.0
2017-Nov-15 16:00N 28°09' W 015°25'0 0.0
2017-Nov-15 15:30N 28°09' W 015°25'0 0.0
2017-Nov-15 15:00N 28°09' W 015°25'0 0.0
2017-Nov-15 14:30N 28°09' W 015°25'0 0.0
2017-Nov-15 14:00N 28°09' W 015°25'0 0.0
2017-Nov-15 13:30N 28°09' W 015°25'0 0.0
2017-Nov-15 13:00N 28°09' W 015°25'0 0.0
2017-Nov-15 12:30N 28°09' W 015°25'0 0.0
2017-Nov-15 12:00N 28°09' W 015°25'0 0.0
2017-Nov-15 11:30N 28°09' W 015°25'0 0.0
2017-Nov-15 11:00N 28°09' W 015°25'0 0.0
2017-Nov-15 10:30N 28°09' W 015°25'0 0.0
2017-Nov-15 09:51N 28°09' W 015°25'0 0.0
2017-Nov-15 09:03N 28°09' W 015°25'0 0.0
2017-Nov-15 08:48N 28°09' W 015°25'0 0.0
2017-Nov-15 08:21N 28°09' W 015°25'0 0.0
2017-Nov-15 07:54N 28°09' W 015°25'0 0.0
2017-Nov-15 07:24N 28°09' W 015°25'0 0.0
2017-Nov-15 06:54N 28°09' W 015°25'0 0.4
2017-Nov-15 06:30N 28°08' W 015°25'1 1.3
2017-Nov-15 06:00N 28°08' W 015°25'1 2.1
2017-Nov-15 05:27N 28°09' W 015°25'0 0.0
2017-Nov-15 04:57N 28°09' W 015°25'0 0.0
2017-Nov-15 04:27N 28°09' W 015°25'0 0.0
2017-Nov-15 03:57N 28°09' W 015°25'0 0.0
2017-Nov-15 03:27N 28°09' W 015°25'0 0.0
2017-Nov-15 02:57N 28°09' W 015°25'0 0.0
2017-Nov-15 02:27N 28°09' W 015°25'0 0.0
2017-Nov-15 02:00N 28°09' W 015°25'0 0.0
2017-Nov-15 01:30N 28°09' W 015°25'0 0.0
2017-Nov-15 01:00N 28°09' W 015°25'0 0.0
2017-Nov-15 00:30N 28°09' W 015°25'0 0.0
2017-Nov-15 00:00N 28°09' W 015°25'0 0.0
2017-Nov-14 23:30N 28°09' W 015°25'0 0.0
2017-Nov-14 23:00N 28°09' W 015°25'0 0.0
2017-Nov-14 22:18N 28°09' W 015°25'0 0.0
2017-Nov-14 22:00N 28°09' W 015°25'0 0.0
2017-Nov-14 21:30N 28°09' W 015°25'0 0.0
2017-Nov-14 21:00N 28°09' W 015°25'0 0.0
2017-Nov-14 20:30N 28°09' W 015°25'0 0.0
2017-Nov-14 19:51N 28°09' W 015°25'0 0.0
2017-Nov-14 19:21N 28°09' W 015°25'0 0.0
2017-Nov-14 18:51N 28°09' W 015°25'0 0.0
2017-Nov-14 18:24N 28°09' W 015°25'0 0.0
2017-Nov-14 17:54N 28°09' W 015°25'0 0.0
2017-Nov-14 17:21N 28°09' W 015°25'0 0.0
2017-Nov-14 16:54N 28°09' W 015°25'0 0.0
2017-Nov-14 16:24N 28°09' W 015°25'0 0.0
2017-Nov-14 15:54N 28°09' W 015°25'0 0.0
2017-Nov-14 15:24N 28°09' W 015°25'0 0.0
2017-Nov-14 14:57N 28°09' W 015°25'0 0.0
2017-Nov-14 14:27N 28°09' W 015°25'0 0.0
2017-Nov-14 13:57N 28°09' W 015°25'0 0.0
2017-Nov-14 13:27N 28°09' W 015°25'0 0.0
2017-Nov-14 12:57N 28°09' W 015°25'0 0.0
2017-Nov-14 12:27N 28°09' W 015°25'0 0.0
2017-Nov-14 12:00N 28°09' W 015°25'0 0.0
2017-Nov-14 11:30N 28°09' W 015°25'0 0.0
2017-Nov-14 11:00N 28°09' W 015°25'0 0.0
2017-Nov-14 10:30N 28°09' W 015°25'0 0.0
2017-Nov-14 10:00N 28°09' W 015°25'0 0.0
2017-Nov-14 09:30N 28°09' W 015°25'0 0.0
2017-Nov-14 09:00N 28°09' W 015°25'0 0.0
2017-Nov-14 08:27N 28°09' W 015°25'0 0.0
2017-Nov-14 08:00N 28°09' W 015°25'0 0.0
2017-Nov-14 07:30N 28°09' W 015°25'0 0.0
2017-Nov-14 07:00N 28°09' W 015°25'0 0.0
2017-Nov-14 06:30N 28°09' W 015°25'0 0.0
2017-Nov-14 06:00N 28°09' W 015°25'0 0.0
2017-Nov-14 05:21N 28°09' W 015°25'0 0.0
2017-Nov-14 04:51N 28°09' W 015°25'0 0.0
2017-Nov-14 04:21N 28°09' W 015°25'0 0.0
2017-Nov-14 03:54N 28°09' W 015°25'0 0.0
2017-Nov-14 03:24N 28°09' W 015°25'0 0.0
2017-Nov-14 02:54N 28°09' W 015°25'0 0.0
2017-Nov-14 02:24N 28°09' W 015°25'0 0.0
2017-Nov-14 01:57N 28°09' W 015°25'0 0.0
2017-Nov-14 01:27N 28°09' W 015°25'0 0.0
2017-Nov-14 00:57N 28°09' W 015°25'0 0.0
2017-Nov-14 00:27N 28°09' W 015°25'0 0.0
2017-Nov-13 23:57N 28°09' W 015°25'0 0.0
2017-Nov-13 23:27N 28°09' W 015°25'0 0.0
2017-Nov-13 22:57N 28°09' W 015°25'0 0.0
2017-Nov-13 22:30N 28°09' W 015°25'0 0.0
2017-Nov-13 22:00N 28°09' W 015°25'0 0.0
2017-Nov-13 02:00N 28°09' W 015°25'0 0.0
2017-Nov-13 01:21N 28°09' W 015°25'0 0.0
2017-Nov-13 00:51N 28°09' W 015°25'0 0.0
2017-Nov-13 00:21N 28°09' W 015°25'0 0.0
2017-Nov-12 23:54N 28°09' W 015°25'0 0.0
2017-Nov-12 23:24N 28°09' W 015°25'0 0.0
2017-Nov-12 22:54N 28°09' W 015°25'0 0.0
2017-Nov-12 22:21N 28°09' W 015°25'0 0.0
2017-Nov-12 21:54N 28°09' W 015°25'0 0.0
2017-Nov-12 21:27N 28°09' W 015°25'0 0.0
2017-Nov-12 20:57N 28°09' W 015°25'0 0.0
2017-Nov-12 20:27N 28°09' W 015°25'0 0.0
2017-Nov-12 19:57N 28°09' W 015°25'0 0.0
2017-Nov-12 19:27N 28°09' W 015°25'0 0.0
2017-Nov-12 18:54N 28°09' W 015°25'0 0.0
2017-Nov-12 18:30N 28°09' W 015°25'0 0.0
2017-Nov-12 18:00N 28°09' W 015°25'0 0.0
2017-Nov-12 17:30N 28°09' W 015°25'0 0.0
2017-Nov-12 16:57N 28°09' W 015°25'0 0.0
2017-Nov-12 16:30N 28°09' W 015°25'0 0.0
2017-Nov-12 16:00N 28°09' W 015°25'0 0.0
2017-Nov-12 15:30N 28°09' W 015°25'0 0.0
2017-Nov-12 14:48N 28°09' W 015°25'0 0.0
2017-Nov-12 14:30N 28°09' W 015°25'0 0.0
2017-Nov-12 14:00N 28°09' W 015°25'0 0.0
2017-Nov-12 13:30N 28°09' W 015°25'0 0.0
2017-Nov-12 13:00N 28°09' W 015°25'0 0.0
2017-Nov-12 12:30N 28°09' W 015°25'0 0.0
2017-Nov-12 12:00N 28°09' W 015°25'0 0.0
2017-Nov-12 11:21N 28°09' W 015°25'0 0.0
2017-Nov-12 10:54N 28°09' W 015°25'0 0.0
2017-Nov-12 10:21N 28°09' W 015°25'0 0.0
2017-Nov-12 09:54N 28°09' W 015°25'0 0.0
2017-Nov-12 09:24N 28°09' W 015°25'0 0.0
2017-Nov-12 08:54N 28°09' W 015°25'0 0.0
2017-Nov-12 08:24N 28°09' W 015°25'0 0.0
2017-Nov-12 07:54N 28°09' W 015°25'0 0.0
2017-Nov-12 07:27N 28°09' W 015°25'0 0.0
2017-Nov-12 06:57N 28°09' W 015°25'0 0.0
2017-Nov-12 06:27N 28°09' W 015°25'0 0.0
2017-Nov-12 05:57N 28°09' W 015°25'0 0.0
2017-Nov-12 05:24N 28°09' W 015°25'0 0.0
2017-Nov-12 05:00N 28°09' W 015°25'0 0.0
2017-Nov-12 04:30N 28°09' W 015°25'0 0.0
2017-Nov-12 04:00N 28°09' W 015°25'0 0.0
2017-Nov-12 03:30N 28°09' W 015°25'0 0.0
2017-Nov-12 03:00N 28°09' W 015°25'0 0.0
2017-Nov-12 02:30N 28°09' W 015°25'0 0.0
2017-Nov-12 01:57N 28°09' W 015°25'0 0.0
2017-Nov-12 01:30N 28°09' W 015°25'0 0.0
2017-Nov-12 00:57N 28°09' W 015°25'0 0.0
2017-Nov-12 00:18N 28°09' W 015°25'0 0.0
2017-Nov-12 00:00N 28°09' W 015°25'0 0.0
2017-Nov-11 23:30N 28°09' W 015°25'0 0.0
2017-Nov-11 23:00N 28°09' W 015°25'0 0.0
2017-Nov-11 22:21N 28°09' W 015°25'0 0.0
2017-Nov-11 21:51N 28°09' W 015°25'0 0.0
2017-Nov-11 21:21N 28°09' W 015°25'0 0.0
2017-Nov-11 20:51N 28°09' W 015°25'0 0.0
2017-Nov-11 20:24N 28°09' W 015°25'0 0.0
2017-Nov-11 19:54N 28°09' W 015°25'0 0.0
2017-Nov-11 19:21N 28°09' W 015°25'0 0.0
2017-Nov-11 18:54N 28°09' W 015°25'0 0.0
2017-Nov-11 18:24N 28°09' W 015°25'0 0.0
2017-Nov-11 17:54N 28°09' W 015°25'0 0.0
2017-Nov-11 17:27N 28°09' W 015°25'0 0.0
2017-Nov-11 16:57N 28°09' W 015°25'0 0.0
2017-Nov-11 16:24N 28°09' W 015°25'0 0.0
2017-Nov-11 15:57N 28°09' W 015°25'0 0.0
2017-Nov-11 15:27N 28°09' W 015°25'0 0.0
2017-Nov-11 14:57N 28°09' W 015°25'0 0.0
2017-Nov-11 14:30N 28°09' W 015°25'0 0.0
2017-Nov-11 14:00N 28°09' W 015°25'0 0.0
2017-Nov-11 13:30N 28°09' W 015°25'0 0.0
2017-Nov-11 12:45N 28°09' W 015°25'0 0.0
2017-Nov-11 12:30N 28°09' W 015°25'0 0.0
2017-Nov-11 12:00N 28°09' W 015°25'0 0.0
2017-Nov-11 11:27N 28°09' W 015°25'0 0.0
2017-Nov-11 11:00N 28°09' W 015°25'0 0.0
2017-Nov-11 10:30N 28°09' W 015°25'0 0.0
2017-Nov-11 10:00N 28°09' W 015°25'0 0.0
2017-Nov-11 09:30N 28°09' W 015°25'0 0.0
2017-Nov-11 09:00N 28°09' W 015°25'0 0.0
2017-Nov-11 08:30N 28°09' W 015°25'0 0.0
2017-Nov-11 07:55N 28°09' W 015°25'0 0.0
2017-Nov-11 07:25N 28°09' W 015°25'0 0.0
2017-Nov-11 06:55N 28°09' W 015°25'0 0.0
2017-Nov-11 06:25N 28°09' W 015°25'0 0.0
2017-Nov-11 05:58N 28°09' W 015°25'0 0.0
2017-Nov-11 05:28N 28°09' W 015°25'0 0.0
2017-Nov-11 04:58N 28°09' W 015°25'0 0.0
2017-Nov-11 04:28N 28°09' W 015°25'0 0.0
2017-Nov-11 03:58N 28°09' W 015°25'0 0.0
2017-Nov-11 03:28N 28°09' W 015°25'0 0.0
2017-Nov-11 02:58N 28°09' W 015°25'0 0.0
2017-Nov-11 02:28N 28°09' W 015°25'0 0.0
2017-Nov-11 01:46N 28°09' W 015°25'0 0.0
2017-Nov-11 01:28N 28°09' W 015°25'0 0.0
2017-Nov-11 00:58N 28°09' W 015°25'0 0.0
2017-Nov-11 00:28N 28°09' W 015°25'0 0.0
2017-Nov-10 23:58N 28°09' W 015°25'0 0.0
2017-Nov-10 23:28N 28°09' W 015°25'0 0.0
2017-Nov-10 22:49N 28°09' W 015°25'0 0.0
2017-Nov-10 22:19N 28°09' W 015°25'0 0.0
2017-Nov-10 21:52N 28°09' W 015°25'0 0.0
2017-Nov-10 21:22N 28°09' W 015°25'0 0.0
2017-Nov-10 20:52N 28°09' W 015°25'0 0.0
2017-Nov-10 20:22N 28°09' W 015°25'0 0.0
2017-Nov-10 19:52N 28°09' W 015°25'0 0.0
2017-Nov-10 19:22N 28°09' W 015°25'0 0.0
2017-Nov-10 18:52N 28°09' W 015°25'0 0.0
2017-Nov-10 18:25N 28°09' W 015°25'0 0.0
2017-Nov-10 17:55N 28°09' W 015°25'0 0.0
2017-Nov-10 17:25N 28°09' W 015°25'0 0.0
2017-Nov-10 16:55N 28°09' W 015°25'0 0.0
2017-Nov-10 16:25N 28°09' W 015°25'0 0.0
2017-Nov-10 15:55N 28°09' W 015°25'0 0.0
2017-Nov-10 15:25N 28°09' W 015°25'0 0.0
2017-Nov-10 14:58N 28°09' W 015°25'0 0.0
2017-Nov-10 14:28N 28°09' W 015°25'0 0.0
2017-Nov-10 13:55N 28°09' W 015°25'0 0.0
2017-Nov-10 13:13N 28°09' W 015°25'0 0.0
2017-Nov-10 12:58N 28°09' W 015°25'0 0.0
2017-Nov-10 12:28N 28°09' W 015°25'0 0.0
2017-Nov-10 11:58N 28°09' W 015°25'0 0.0
2017-Nov-10 11:28N 28°09' W 015°25'0 0.0
2017-Nov-10 10:58N 28°09' W 015°25'0 0.0
2017-Nov-10 10:16N 28°09' W 015°25'0 0.0
2017-Nov-10 09:58N 28°09' W 015°25'0 0.0
2017-Nov-10 09:28N 28°09' W 015°25'0 0.0
2017-Nov-10 08:58N 28°09' W 015°25'0 0.0
2017-Nov-10 08:04N 28°09' W 015°25'0 0.0
2017-Nov-10 07:49N 28°09' W 015°25'0 0.0
2017-Nov-10 07:19N 28°09' W 015°25'0 0.0
2017-Nov-10 06:52N 28°09' W 015°25'0 0.0
2017-Nov-10 06:22N 28°09' W 015°25'0 0.0
2017-Nov-10 05:52N 28°09' W 015°25'0 0.0
2017-Nov-10 05:22N 28°09' W 015°25'0 0.0
2017-Nov-10 04:49N 28°09' W 015°25'0 0.0
2017-Nov-10 04:22N 28°09' W 015°25'0 0.0
2017-Nov-10 03:55N 28°09' W 015°25'0 0.0
2017-Nov-10 03:25N 28°09' W 015°25'0 0.0
2017-Nov-10 02:55N 28°09' W 015°25'0 0.0
2017-Nov-10 02:22N 28°09' W 015°25'0 0.0
2017-Nov-10 01:58N 28°09' W 015°25'0 0.0
2017-Nov-10 01:28N 28°09' W 015°25'0 0.0
2017-Nov-10 00:58N 28°09' W 015°25'  

Dump ship's entire track history